createdAt,value
2018-05-21T00:01:53.463Z,19.73
2018-05-21T00:04:21.002Z,19.37
2018-05-21T00:06:48.515Z,18.60
2018-05-21T00:09:16.139Z,17.47
2018-05-21T00:11:44.555Z,20.17
2018-05-21T00:14:14.999Z,18.50
2018-05-21T00:16:45.192Z,16.70
2018-05-21T00:19:14.205Z,19.17
2018-05-21T00:21:41.779Z,17.73
2018-05-21T00:24:09.320Z,18.33
2018-05-21T00:26:36.867Z,18.43
2018-05-21T00:29:05.702Z,21.30
2018-05-21T00:31:36.550Z,19.80
2018-05-21T00:34:04.687Z,21.13
2018-05-21T00:36:33.159Z,22.10
2018-05-21T00:39:00.699Z,20.07
2018-05-21T00:41:28.223Z,19.77
2018-05-21T00:43:55.734Z,20.27
2018-05-21T00:46:24.641Z,15.87
2018-05-21T00:48:53.139Z,18.80
2018-05-21T00:51:24.457Z,18.10
2018-05-21T00:53:54.640Z,18.67
2018-05-21T00:56:23.363Z,18.60
2018-05-21T00:58:50.871Z,19.43
2018-05-21T01:01:18.392Z,21.43
2018-05-21T01:03:45.951Z,18.07
2018-05-21T01:06:14.474Z,16.37
2018-05-21T01:08:42.263Z,17.97
2018-05-21T01:11:12.315Z,17.90
2018-05-21T01:13:39.833Z,20.13
2018-05-21T01:16:07.355Z,16.43
2018-05-21T01:18:34.896Z,21.00
2018-05-21T01:21:02.459Z,19.13
2018-05-21T01:23:30.855Z,17.27
2018-05-21T01:25:58.707Z,20.83
2018-05-21T01:28:26.533Z,17.17
2018-05-21T01:30:54.328Z,20.37
2018-05-21T01:33:21.889Z,20.00
2018-05-21T01:35:49.423Z,16.63
2018-05-21T01:38:17.100Z,17.97
2018-05-21T01:40:44.804Z,19.73
2018-05-21T01:43:12.644Z,21.63
2018-05-21T01:45:40.600Z,17.70
2018-05-21T01:48:09.183Z,18.70
2018-05-21T01:50:36.715Z,20.00
2018-05-21T01:53:04.265Z,18.07
2018-05-21T01:55:31.793Z,18.20
2018-05-21T01:57:59.467Z,18.97
2018-05-21T02:00:28.415Z,18.00
2018-05-21T02:02:56.653Z,18.40
2018-05-21T02:05:24.528Z,26.77
2018-05-21T02:07:52.075Z,20.40
2018-05-21T02:10:19.606Z,29.97
2018-05-21T02:12:47.235Z,16.80
2018-05-21T02:15:14.904Z,19.70
2018-05-21T02:17:42.626Z,18.13
2018-05-21T02:20:10.654Z,18.97
2018-05-21T02:22:39.049Z,19.13
2018-05-21T02:25:06.683Z,19.70
2018-05-21T02:27:34.195Z,16.67
2018-05-21T02:30:01.742Z,19.30
2018-05-21T02:32:29.459Z,18.07
2018-05-21T02:34:57.363Z,18.37
2018-05-21T02:37:25.973Z,17.63
2018-05-21T02:39:53.713Z,20.87
2018-05-21T02:42:21.328Z,18.60
2018-05-21T02:44:48.857Z,17.23
2018-05-21T02:47:16.435Z,19.20
2018-05-21T02:49:44.095Z,19.37
2018-05-21T02:52:12.667Z,17.60
2018-05-21T02:54:40.525Z,18.77
2018-05-21T02:57:09.229Z,20.10
2018-05-21T02:59:36.804Z,16.80
2018-05-21T03:02:04.359Z,16.07
2018-05-21T03:04:31.935Z,17.17
2018-05-21T03:06:59.623Z,20.50
2018-05-21T03:09:29.534Z,17.20
2018-05-21T03:11:58.406Z,18.23
2018-05-21T03:14:26.100Z,15.77
2018-05-21T03:16:53.792Z,16.47
2018-05-21T03:19:21.348Z,15.73
2018-05-21T03:21:48.898Z,20.03
2018-05-21T03:24:16.465Z,14.73
2018-05-21T03:26:46.377Z,19.10
2018-05-21T03:29:14.074Z,15.33
2018-05-21T03:31:44.788Z,17.17
2018-05-21T03:34:12.859Z,15.13
2018-05-21T03:36:40.371Z,16.13
2018-05-21T03:39:07.915Z,19.27
2018-05-21T03:41:35.727Z,16.20
2018-05-21T03:44:03.452Z,16.23
2018-05-21T03:46:31.618Z,13.73
2018-05-21T03:51:30.872Z,15.63
2018-05-21T03:53:58.491Z,16.27
2018-05-21T03:56:26.010Z,14.43
2018-05-21T03:59:05.358Z,14.90
2018-05-21T04:01:46.493Z,14.70
2018-05-21T04:04:16.781Z,13.33
2018-05-21T04:06:44.651Z,14.70
2018-05-21T04:09:12.178Z,18.90
2018-05-21T04:11:39.783Z,15.63
2018-05-21T04:14:07.402Z,15.07
2018-05-21T04:16:35.059Z,14.37
2018-05-21T04:19:02.855Z,14.67
2018-05-21T04:21:30.620Z,16.87
2018-05-21T04:23:59.206Z,14.27
2018-05-21T04:26:26.839Z,14.83
2018-05-21T04:28:54.387Z,14.73
2018-05-21T04:31:21.881Z,14.20
2018-05-21T04:33:49.418Z,15.07
2018-05-21T04:36:17.713Z,15.63
2018-05-21T04:38:46.198Z,15.00
2018-05-21T04:41:15.000Z,19.70
2018-05-21T04:43:42.711Z,15.30
2018-05-21T04:46:10.366Z,15.87
2018-05-21T04:48:37.901Z,19.43
2018-05-21T04:51:05.507Z,17.37
2018-05-21T04:53:34.025Z,16.33
2018-05-21T04:56:02.192Z,16.30
2018-05-21T04:58:30.692Z,16.20
2018-05-21T05:01:01.399Z,16.50
2018-05-21T05:03:28.975Z,15.80
2018-05-21T05:05:56.495Z,15.77
2018-05-21T05:08:24.259Z,14.97
2018-05-21T05:10:54.213Z,15.93
2018-05-21T05:13:26.547Z,17.80
2018-05-21T05:15:54.180Z,20.67
2018-05-21T05:18:22.410Z,18.90
2018-05-21T05:20:49.981Z,18.57
2018-05-21T05:23:18.560Z,15.03
2018-05-21T05:25:46.120Z,14.67
2018-05-21T05:28:20.878Z,16.10
2018-05-21T05:30:50.020Z,17.37
2018-05-21T05:33:18.645Z,16.97
2018-05-21T05:35:50.205Z,14.70
2018-05-21T05:38:17.741Z,14.80
2018-05-21T05:40:45.285Z,19.30
2018-05-21T05:43:12.792Z,16.83
2018-05-21T05:45:40.459Z,19.20
2018-05-21T05:48:08.753Z,17.10
2018-05-21T05:50:37.722Z,17.23
2018-05-21T05:53:06.441Z,19.80
2018-05-21T05:55:33.975Z,19.77
2018-05-21T05:58:01.551Z,16.97
2018-05-21T06:00:29.155Z,16.03
2018-05-21T06:02:56.943Z,17.33
2018-05-21T06:08:29.040Z,17.63
2018-05-21T06:11:01.592Z,20.93
2018-05-21T06:13:29.239Z,17.70
2018-05-21T06:15:56.771Z,19.27
2018-05-21T06:18:24.339Z,18.30
2018-05-21T06:23:54.868Z,25.67
2018-05-21T06:26:27.713Z,20.37
2018-05-21T06:28:57.639Z,20.07
2018-05-21T06:31:25.243Z,28.53
2018-05-21T06:33:52.802Z,22.67
2018-05-21T06:36:20.326Z,20.73
2018-05-21T06:38:50.402Z,20.00
2018-05-21T06:41:18.574Z,25.23
2018-05-21T06:43:48.613Z,23.97
2018-05-21T06:46:16.630Z,20.13
2018-05-21T06:48:44.138Z,22.13
2018-05-21T06:51:11.642Z,22.30
2018-05-21T06:53:39.142Z,24.70
2018-05-21T06:56:09.392Z,22.73
2018-05-21T06:58:38.309Z,20.73
2018-05-21T07:01:06.868Z,23.93
2018-05-21T07:03:40.930Z,21.73
2018-05-21T07:06:08.462Z,22.83
2018-05-21T07:08:35.942Z,23.10
2018-05-21T07:11:03.493Z,20.70
2018-05-21T07:16:30.676Z,20.37
2018-05-21T07:19:02.872Z,23.47
2018-05-21T07:21:31.595Z,24.27
2018-05-21T07:23:59.115Z,24.80
2018-05-21T07:26:26.649Z,23.67
2018-05-21T07:28:54.292Z,28.20
2018-05-21T07:31:22.400Z,25.87
2018-05-21T07:33:50.043Z,24.57
2018-05-21T07:36:18.146Z,20.70
2018-05-21T07:38:45.717Z,26.43
2018-05-21T07:41:13.176Z,22.70
2018-05-21T07:43:40.690Z,26.63
2018-05-21T07:46:08.383Z,23.90
2018-05-21T07:51:35.624Z,26.23
2018-05-21T07:54:03.316Z,23.20
2018-05-21T07:56:30.919Z,25.23
2018-05-21T07:58:58.511Z,27.70
2018-05-21T08:01:26.042Z,30.40
2018-05-21T08:03:53.731Z,22.57
2018-05-21T08:06:22.056Z,25.03
2018-05-21T08:08:50.607Z,23.63
2018-05-21T08:11:26.121Z,24.80
2018-05-21T08:13:53.667Z,25.33
2018-05-21T08:16:21.193Z,25.70
2018-05-21T08:18:48.747Z,24.53
2018-05-21T08:21:16.328Z,21.60
2018-05-21T08:27:16.851Z,21.23
2018-05-21T08:29:44.657Z,23.80
2018-05-21T08:32:12.231Z,23.13
2018-05-21T08:34:39.793Z,21.00
2018-05-21T08:37:07.271Z,28.10
2018-05-21T08:39:42.083Z,28.83
2018-05-21T08:42:10.697Z,25.90
2018-05-21T08:44:38.361Z,23.83
2018-05-21T08:47:06.667Z,24.57
2018-05-21T08:49:34.146Z,20.60
2018-05-21T08:54:55.512Z,25.63
2018-05-21T08:57:23.149Z,25.93
2018-05-21T08:59:50.765Z,23.27
2018-05-21T09:02:18.446Z,29.47
2018-05-21T09:04:46.121Z,27.60
2018-05-21T09:07:13.628Z,33.10
2018-05-21T09:09:41.178Z,27.33
2018-05-21T09:12:08.731Z,26.37
2018-05-21T09:14:36.371Z,29.03
2018-05-21T09:17:07.160Z,22.57
2018-05-21T09:19:34.766Z,26.53
2018-05-21T09:22:02.399Z,23.90
2018-05-21T09:24:29.911Z,23.27
2018-05-21T09:26:57.471Z,25.93
2018-05-21T09:29:25.072Z,23.33
2018-05-21T09:31:57.232Z,17.10
2018-05-21T09:37:36.748Z,21.07
2018-05-21T09:40:04.283Z,23.57
2018-05-21T09:42:31.787Z,25.53
2018-05-21T09:44:59.331Z,20.43
2018-05-21T09:47:26.898Z,24.10
2018-05-21T09:49:54.559Z,23.10
2018-05-21T09:52:24.545Z,20.83
2018-05-21T09:54:52.964Z,23.00
2018-05-21T09:57:20.748Z,22.97
2018-05-21T09:59:48.291Z,24.43
2018-05-21T10:02:15.812Z,19.20
2018-05-21T10:04:43.363Z,18.87
2018-05-21T10:07:12.831Z,24.90
2018-05-21T10:09:40.669Z,20.27
2018-05-21T10:12:08.824Z,21.87
2018-05-21T10:14:36.531Z,14.63
2018-05-21T10:19:35.881Z,16.60
2018-05-21T10:22:03.411Z,14.13
2018-05-21T10:24:30.961Z,15.80
2018-05-21T10:26:58.595Z,17.57
2018-05-21T10:29:26.231Z,13.30
2018-05-21T10:31:59.490Z,14.43
2018-05-21T10:34:27.170Z,13.87
2018-05-21T10:36:54.860Z,13.23
2018-05-21T10:39:22.441Z,10.33
2018-05-21T10:41:49.963Z,11.37
2018-05-21T10:44:17.516Z,10.80
2018-05-21T10:46:45.071Z,14.93
2018-05-21T10:49:13.907Z,10.60
2018-05-21T10:51:42.104Z,13.93
2018-05-21T10:54:10.770Z,15.50
2018-05-21T10:56:38.468Z,18.13
2018-05-21T10:59:05.997Z,14.03
2018-05-21T11:01:33.566Z,14.27
2018-05-21T11:04:01.431Z,15.27
2018-05-21T11:06:29.038Z,20.10
2018-05-21T11:08:57.621Z,14.47
2018-05-21T11:11:27.311Z,13.60
2018-05-21T11:13:57.728Z,13.50
2018-05-21T11:16:25.255Z,11.70
2018-05-21T11:18:52.768Z,16.70
2018-05-21T11:21:20.314Z,15.37
2018-05-21T11:23:48.155Z,10.43
2018-05-21T11:26:19.917Z,12.17
2018-05-21T11:28:49.440Z,11.33
2018-05-21T11:34:01.503Z,13.70
2018-05-21T11:36:29.137Z,11.57
2018-05-21T11:38:56.715Z,13.53
2018-05-21T11:41:24.251Z,10.83
2018-05-21T11:43:51.842Z,8.77
2018-05-21T11:46:20.186Z,12.67
2018-05-21T11:48:49.531Z,8.77
2018-05-21T11:51:18.079Z,8.97
2018-05-21T11:53:46.695Z,11.73
2018-05-21T11:56:14.307Z,9.63
2018-05-21T11:58:41.839Z,8.37
2018-05-21T12:01:09.486Z,10.43
2018-05-21T12:03:38.104Z,9.57
2018-05-21T12:14:43.342Z,9.20
2018-05-21T12:17:10.921Z,10.07
2018-05-21T12:19:38.462Z,9.03
2018-05-21T12:33:36.696Z,10.13
2018-05-21T12:36:04.253Z,8.70
2018-05-21T12:38:31.902Z,11.60
2018-05-21T12:50:26.454Z,8.83
2018-05-21T12:52:57.131Z,10.67
2018-05-21T12:55:24.698Z,8.07
2018-05-21T12:57:52.508Z,9.53
2018-05-21T13:05:17.895Z,9.77
2018-05-21T13:10:18.203Z,6.30
2018-05-21T13:12:45.779Z,6.73
2018-05-21T13:15:14.193Z,5.63
2018-05-21T13:17:42.839Z,7.37
2018-05-21T13:20:33.573Z,6.03
2018-05-21T13:23:06.593Z,8.97
2018-05-21T13:25:34.478Z,6.53
2018-05-21T13:28:02.066Z,7.40
2018-05-21T13:30:29.608Z,5.97
2018-05-21T13:32:57.122Z,7.63
2018-05-21T13:35:25.707Z,7.33
2018-05-21T13:37:58.311Z,9.20
2018-05-21T13:40:41.579Z,12.57
2018-05-21T13:43:14.183Z,10.47
2018-05-21T13:45:42.544Z,12.47
2018-05-21T13:48:12.383Z,11.80
2018-05-21T13:50:39.947Z,14.47
2018-05-21T13:53:13.883Z,12.90
2018-05-21T13:55:42.331Z,16.10
2018-05-21T13:58:12.793Z,16.63
2018-05-21T14:00:44.694Z,15.83
2018-05-21T14:03:12.300Z,14.80
2018-05-21T14:05:39.874Z,18.20
2018-05-21T14:08:07.415Z,13.10
2018-05-21T14:10:35.093Z,16.30
2018-05-21T14:13:05.072Z,17.93
2018-05-21T14:15:34.518Z,17.93
2018-05-21T14:18:03.020Z,14.03
2018-05-21T14:20:31.674Z,17.43
2018-05-21T14:22:59.186Z,16.70
2018-05-21T14:25:26.806Z,18.63
2018-05-21T14:27:54.591Z,13.17
2018-05-21T14:30:22.295Z,13.83
2018-05-21T14:32:50.312Z,16.53
2018-05-21T14:35:18.659Z,13.07
2018-05-21T14:37:46.195Z,15.53
2018-05-21T14:40:13.747Z,14.80
2018-05-21T14:42:41.294Z,13.73
2018-05-21T14:45:10.381Z,13.33
2018-05-21T14:47:37.975Z,13.87
2018-05-21T14:50:06.772Z,16.33
2018-05-21T14:52:36.889Z,17.20
2018-05-21T14:55:04.419Z,14.47
2018-05-21T14:57:31.991Z,15.37
2018-05-21T14:59:59.635Z,13.40
2018-05-21T15:02:27.260Z,13.60
2018-05-21T15:08:38.387Z,10.57
2018-05-21T15:11:07.461Z,15.00
2018-05-21T15:13:35.708Z,18.03
2018-05-21T15:16:03.255Z,10.63
2018-05-21T15:18:30.819Z,11.47
2018-05-21T15:21:16.812Z,14.17
2018-05-21T15:23:46.996Z,9.60
2018-05-21T15:26:14.809Z,12.20
2018-05-21T15:28:42.384Z,12.27
2018-05-21T15:31:10.071Z,14.97
2018-05-21T15:33:37.618Z,12.93
2018-05-21T15:36:05.162Z,13.67
2018-05-21T15:44:07.151Z,11.07
2018-05-21T15:46:34.774Z,10.73
2018-05-21T15:49:02.302Z,11.17
2018-05-21T15:51:29.831Z,8.90
2018-05-21T15:53:57.456Z,11.37
2018-05-21T15:56:29.753Z,15.77
2018-05-21T15:58:59.195Z,12.97
2018-05-21T16:01:33.107Z,15.73
2018-05-21T16:04:01.773Z,11.27
2018-05-21T16:06:29.319Z,12.37
2018-05-21T16:08:56.876Z,10.80
2018-05-21T16:11:24.591Z,11.60
2018-05-21T16:13:55.980Z,12.23
2018-05-21T16:16:23.951Z,11.17
2018-05-21T16:18:51.531Z,10.73
2018-05-21T16:21:19.207Z,7.57
2018-05-21T16:23:47.803Z,11.80
2018-05-21T16:26:15.299Z,6.93
2018-05-21T16:28:42.971Z,6.27
2018-05-21T16:31:17.022Z,8.23
2018-05-21T16:33:50.175Z,9.17
2018-05-21T16:36:18.712Z,7.33
2018-05-21T16:41:25.833Z,5.57
2018-05-21T16:43:53.359Z,5.67
2018-05-21T16:46:20.887Z,7.33
2018-05-21T16:48:49.424Z,10.07
2018-05-21T16:51:17.969Z,7.83
2018-05-21T16:53:52.925Z,9.13
2018-05-21T16:56:21.508Z,7.03
2018-05-21T16:58:49.079Z,9.00
2018-05-21T17:01:16.620Z,7.43
2018-05-21T17:03:45.076Z,9.03
2018-05-21T17:06:12.716Z,11.70
2018-05-21T17:08:41.275Z,9.23
2018-05-21T17:11:10.731Z,9.10
2018-05-21T17:13:38.403Z,9.67
2018-05-21T17:16:06.821Z,9.07
2018-05-21T17:18:34.344Z,8.63
2018-05-21T17:21:02.110Z,9.23
2018-05-21T17:23:29.495Z,9.07
2018-05-21T17:26:01.074Z,7.13
2018-05-21T17:28:30.824Z,7.57
2018-05-21T17:30:58.547Z,9.27
2018-05-21T17:33:29.038Z,6.17
2018-05-21T17:35:56.595Z,11.40
2018-05-21T17:38:24.139Z,6.67
2018-05-21T17:40:51.654Z,9.53
2018-05-21T17:43:19.245Z,7.53
2018-05-21T17:46:06.065Z,9.27
2018-05-21T17:51:38.615Z,8.77
2018-05-21T17:54:06.536Z,7.63
2018-05-21T17:56:34.094Z,8.23
2018-05-21T17:59:01.640Z,7.83
2018-05-21T18:01:29.163Z,7.20
2018-05-21T18:03:57.887Z,10.77
2018-05-21T18:06:27.546Z,9.07
2018-05-21T18:08:55.160Z,9.07
2018-05-21T18:11:31.199Z,7.33
2018-05-21T18:13:58.740Z,5.87
2018-05-21T18:16:26.301Z,6.53
2018-05-21T18:18:53.836Z,6.50
2018-05-21T18:21:21.399Z,7.87
2018-05-21T18:23:49.135Z,13.17
2018-05-21T18:26:27.654Z,16.20
2018-05-21T18:28:55.305Z,9.93
2018-05-21T18:31:41.862Z,6.80
2018-05-21T18:34:09.340Z,6.53
2018-05-21T18:36:36.879Z,5.43
2018-05-21T18:39:04.527Z,5.00
2018-05-21T18:41:33.395Z,6.20
2018-05-21T18:44:05.828Z,7.80
2018-05-21T18:46:34.337Z,10.53
2018-05-21T18:49:02.872Z,7.90
2018-05-21T18:51:30.391Z,6.03
2018-05-21T18:53:57.908Z,6.30
2018-05-21T18:56:25.455Z,9.67
2018-05-21T18:58:53.067Z,10.23
2018-05-21T19:01:27.260Z,7.07
2018-05-21T19:04:01.457Z,7.70
2018-05-21T19:06:29.975Z,5.90
2018-05-21T19:11:55.939Z,8.83
2018-05-21T19:14:23.431Z,6.40
2018-05-21T19:16:50.918Z,6.30
2018-05-21T19:19:37.118Z,7.67
2018-05-21T20:04:36.158Z,11.70
2018-05-21T20:07:03.654Z,9.70
2018-05-21T20:09:31.271Z,9.90
2018-05-21T20:11:58.935Z,9.03
2018-05-21T20:14:26.712Z,8.63
2018-05-21T20:16:54.324Z,9.33
2018-05-21T20:19:22.076Z,15.30
2018-05-21T20:21:49.599Z,9.73
2018-05-21T20:24:17.072Z,6.93
2018-05-21T20:26:44.607Z,6.87
2018-05-21T20:29:12.172Z,12.53
2018-05-21T20:31:43.033Z,8.97
2018-05-21T20:34:12.339Z,12.03
2018-05-21T20:36:45.679Z,7.87
2018-05-21T20:39:13.241Z,7.70
2018-05-21T20:41:40.795Z,13.23
2018-05-21T20:44:08.355Z,9.90
2018-05-21T20:46:35.902Z,9.77
2018-05-21T20:49:03.878Z,11.90
2018-05-21T20:51:31.566Z,8.37
2018-05-21T20:53:59.401Z,9.80
2018-05-21T20:56:29.986Z,13.90
2018-05-21T20:58:57.539Z,10.93
2018-05-21T21:01:25.083Z,14.40
2018-05-21T21:03:52.660Z,11.10
2018-05-21T21:06:22.563Z,9.90
2018-05-21T21:08:50.829Z,12.70
2018-05-21T21:11:22.322Z,9.20
2018-05-21T21:13:50.969Z,12.20
2018-05-21T21:16:18.567Z,10.80
2018-05-21T21:18:46.108Z,8.97
2018-05-21T21:21:13.639Z,12.57
2018-05-21T21:23:41.387Z,9.27
2018-05-21T21:26:11.141Z,7.37
2018-05-21T21:28:39.044Z,6.43
2018-05-21T21:31:06.727Z,6.33
2018-05-21T21:33:34.460Z,13.17
2018-05-21T21:36:01.988Z,13.83
2018-05-21T21:38:29.522Z,10.53
2018-05-21T21:40:57.161Z,12.40
2018-05-21T21:43:29.216Z,12.07
2018-05-21T21:45:57.991Z,9.20
2018-05-21T21:48:25.790Z,8.63
2018-05-21T21:50:54.129Z,9.83
2018-05-21T21:53:22.329Z,11.77
2018-05-21T21:55:49.759Z,8.93
2018-05-21T21:58:17.256Z,12.00
2018-05-21T22:00:45.967Z,7.23
2018-05-21T22:03:13.870Z,9.43
2018-05-21T22:05:42.242Z,8.97
2018-05-21T22:08:17.837Z,9.13
2018-05-21T22:10:45.359Z,7.73
2018-05-21T22:13:12.908Z,8.30
2018-05-21T22:15:40.439Z,8.87
2018-05-21T22:18:09.822Z,5.77
2018-05-21T22:28:23.969Z,8.60
2018-05-21T22:30:51.496Z,9.27
2018-05-21T22:33:19.075Z,9.27
2018-05-21T22:46:04.085Z,8.00
2018-05-21T22:48:31.580Z,9.87
2018-05-21T22:50:59.194Z,11.80
2018-05-21T23:03:48.967Z,8.87
2018-05-21T23:06:16.544Z,8.63
2018-05-21T23:08:44.140Z,10.20
2018-05-21T23:13:47.310Z,11.23
2018-05-21T23:18:47.522Z,11.37
2018-05-21T23:21:15.083Z,9.73
2018-05-21T23:23:42.598Z,9.77
2018-05-21T23:26:10.119Z,10.40
2018-05-21T23:28:37.714Z,7.77
2018-05-21T23:31:05.417Z,8.13
2018-05-21T23:33:33.111Z,9.07
2018-05-21T23:36:03.470Z,12.53
2018-05-21T23:38:31.091Z,9.50
2018-05-21T23:40:58.634Z,10.43
2018-05-21T23:43:26.166Z,8.07
2018-05-21T23:48:43.402Z,11.57
2018-05-21T23:51:11.024Z,7.03
2018-05-21T23:53:38.663Z,15.17
2018-05-21T23:56:06.226Z,10.57
2018-05-21T23:58:33.759Z,7.10
